Time;durP1;ratioP1;P1;durP2;ratioP2;P2;SDS_P1;SDS_P2;PMS_P1;PMS_P2;Temp;Humidity;BMP_temperature;BMP_pressure;BME280_temperature;BME280_humidity;BME280_pressure;Samples;Min_cycle;Max_cycle;Signal;HPM_P1;HPM_P2
2020/12/17 00:00:02;;;;;;;25.50;19.88;;;10.60;96.70;;;;;;4978707;28;20600;-83
2020/12/17 00:02:31;;;;;;;23.23;19.20;;;10.60;96.70;;;;;;4981933;28;20132;-83
2020/12/17 00:04:58;;;;;;;25.45;20.83;;;10.60;96.70;;;;;;4963841;28;20060;-83
2020/12/17 00:07:26;;;;;;;25.95;20.95;;;10.60;96.70;;;;;;4970838;28;20410;-83
2020/12/17 00:09:53;;;;;;;24.45;20.25;;;10.50;96.70;;;;;;4977951;28;20043;-83
2020/12/17 00:12:21;;;;;;;27.63;22.08;;;10.50;96.70;;;;;;4980827;28;20050;-83
2020/12/17 00:14:48;;;;;;;26.80;20.75;;;10.50;96.70;;;;;;4964902;28;20046;-83
2020/12/17 00:17:17;;;;;;;25.05;20.25;;;10.50;96.70;;;;;;4965518;28;20331;-83
2020/12/17 00:19:44;;;;;;;27.90;20.98;;;10.50;96.70;;;;;;4997980;28;20050;-83
2020/12/17 00:22:11;;;;;;;25.90;21.00;;;10.50;96.70;;;;;;4977890;28;20113;-83
2020/12/17 00:24:38;;;;;;;24.35;21.10;;;10.50;96.70;;;;;;4962787;28;20520;-83
2020/12/17 00:27:06;;;;;;;24.77;21.10;;;10.60;96.70;;;;;;4979423;28;20117;-83
2020/12/17 00:29:33;;;;;;;27.20;21.60;;;10.60;96.70;;;;;;4981915;28;20065;-83
2020/12/17 00:32:00;;;;;;;24.42;20.67;;;10.60;96.70;;;;;;4964411;28;20049;-82
2020/12/17 00:34:28;;;;;;;24.05;20.20;;;10.60;96.70;;;;;;4980561;28;20223;-83
2020/12/17 00:36:56;;;;;;;25.00;20.50;;;10.60;96.70;;;;;;4978827;28;20047;-83
2020/12/17 00:39:23;;;;;;;25.23;20.95;;;10.50;96.70;;;;;;4978487;28;20051;-83
2020/12/17 00:41:50;;;;;;;27.17;22.77;;;10.50;96.70;;;;;;4981348;28;20049;-83
2020/12/17 00:44:18;;;;;;;26.92;21.83;;;10.50;96.70;;;;;;4963311;28;20054;-83
2020/12/17 00:46:50;;;;;;;25.88;20.75;;;10.50;96.70;;;;;;4965685;28;20523;-83
2020/12/17 00:49:18;;;;;;;26.55;21.45;;;10.50;96.70;;;;;;4976587;28;20046;-83
2020/12/17 00:51:46;;;;;;;27.15;22.10;;;10.50;96.70;;;;;;4982712;28;20038;-83
2020/12/17 00:54:14;;;;;;;27.08;21.25;;;10.50;96.70;;;;;;4979894;28;20528;-83
2020/12/17 00:56:45;;;;;;;26.23;20.98;;;10.50;96.70;;;;;;5014163;28;20052;-83
2020/12/17 00:59:12;;;;;;;24.20;20.67;;;10.50;96.70;;;;;;4978712;28;20050;-83
2020/12/17 01:01:40;;;;;;;23.02;20.55;;;10.50;96.70;;;;;;4964657;28;20042;-84
2020/12/17 01:04:07;;;;;;;24.05;20.05;;;10.50;96.70;;;;;;4980109;28;20046;-83
2020/12/17 01:06:34;;;;;;;25.35;19.80;;;10.50;96.70;;;;;;4982409;28;20066;-83
2020/12/17 01:09:03;;;;;;;25.63;19.42;;;10.50;96.70;;;;;;4980814;28;20065;-83
2020/12/17 01:11:31;;;;;;;22.25;19.02;;;10.60;96.70;;;;;;4992799;28;20038;-82
2020/12/17 01:13:59;;;;;;;21.33;19.08;;;10.50;96.70;;;;;;4978315;28;20546;-83
2020/12/17 01:16:26;;;;;;;20.95;18.55;;;10.60;96.70;;;;;;4982148;28;20832;-83
2020/12/17 01:18:53;;;;;;;22.73;19.13;;;10.60;96.70;;;;;;4964618;28;20043;-83
2020/12/17 01:21:21;;;;;;;21.45;18.75;;;10.60;96.70;;;;;;4980071;28;20061;-82
2020/12/17 01:23:48;;;;;;;21.02;18.10;;;10.60;96.70;;;;;;4977569;28;20547;-83
2020/12/17 01:26:16;;;;;;;22.75;17.38;;;10.60;96.70;;;;;;4981462;28;20034;-83
2020/12/17 01:28:43;;;;;;;20.00;17.38;;;10.60;96.70;;;;;;4991468;28;20038;-83
2020/12/17 01:31:12;;;;;;;18.27;16.25;;;10.70;96.70;;;;;;4965521;28;20038;-83
2020/12/17 01:33:41;;;;;;;19.60;17.25;;;10.70;96.70;;;;;;4978921;28;20038;-83
2020/12/17 01:36:10;;;;;;;21.15;17.67;;;10.70;96.70;;;;;;4968607;28;20042;-83
2020/12/17 01:38:39;;;;;;;21.38;17.63;;;10.60;96.70;;;;;;4985344;28;20468;-83
2020/12/17 01:41:07;;;;;;;22.33;18.20;;;10.60;96.70;;;;;;4966553;28;20035;-83
2020/12/17 01:43:37;;;;;;;20.70;16.90;;;10.60;96.70;;;;;;4966818;28;20043;-83
2020/12/17 01:46:04;;;;;;;21.30;17.75;;;10.70;96.70;;;;;;4984879;28;20555;-83
2020/12/17 01:48:33;;;;;;;20.65;17.08;;;10.70;96.70;;;;;;4966877;28;20536;-83
2020/12/17 01:51:01;;;;;;;19.67;16.83;;;10.70;96.70;;;;;;4968483;28;20061;-83
2020/12/17 01:53:28;;;;;;;19.23;17.13;;;10.70;96.70;;;;;;4984539;28;20046;-83
2020/12/17 01:56:01;;;;;;;21.50;17.70;;;10.70;96.70;;;;;;4984331;28;20117;-83
2020/12/17 01:58:34;;;;;;;22.40;18.65;;;10.60;96.70;;;;;;4981637;28;20030;-83
2020/12/17 02:01:05;;;;;;;21.10;17.48;;;10.60;96.70;;;;;;4967602;28;20519;-83
2020/12/17 02:03:32;;;;;;;21.70;18.38;;;10.70;96.70;;;;;;4983177;28;20424;-82
2020/12/17 02:06:02;;;;;;;21.02;17.63;;;10.70;96.70;;;;;;4979896;28;20042;-83
2020/12/17 02:08:37;;;;;;;21.52;17.10;;;10.70;96.70;;;;;;4967448;28;20737;-83
2020/12/17 02:11:07;;;;;;;20.08;17.77;;;10.70;96.70;;;;;;4968918;28;20042;-83
2020/12/17 02:13:35;;;;;;;21.38;19.08;;;10.70;96.70;;;;;;4987842;28;20043;-83
2020/12/17 02:16:04;;;;;;;19.90;17.35;;;10.70;96.70;;;;;;4984649;28;20043;-83
2020/12/17 02:18:32;;;;;;;21.75;18.67;;;10.70;96.70;;;;;;4979856;28;20039;-83
2020/12/17 02:21:01;;;;;;;21.70;17.88;;;10.60;96.70;;;;;;4983545;28;20493;-88
2020/12/17 02:23:28;;;;;;;22.48;18.80;;;10.60;96.70;;;;;;4987612;28;20102;-88
2020/12/17 02:25:58;;;;;;;24.70;19.73;;;10.60;96.70;;;;;;4967842;28;20125;-89
2020/12/17 02:28:26;;;;;;;22.08;18.52;;;10.60;96.70;;;;;;4986128;28;20449;-89
2020/12/17 02:30:53;;;;;;;22.02;18.45;;;10.60;96.70;;;;;;4973660;28;20043;-86
2020/12/17 02:33:20;;;;;;;23.38;18.40;;;10.60;96.70;;;;;;4985228;28;20547;-88
2020/12/17 02:35:47;;;;;;;20.95;18.20;;;10.60;96.70;;;;;;4968881;28;20041;-86
2020/12/17 02:38:14;;;;;;;22.45;18.90;;;10.60;96.70;;;;;;4985135;28;20409;-88
2020/12/17 02:40:42;;;;;;;21.70;18.77;;;10.60;96.70;;;;;;4982552;28;20046;-87
2020/12/17 02:43:11;;;;;;;20.17;18.00;;;10.60;96.70;;;;;;4984886;28;20114;-88
2020/12/17 02:45:47;;;;;;;20.20;17.55;;;10.60;96.70;;;;;;4984000;28;20061;-88
2020/12/17 02:48:15;;;;;;;23.33;18.17;;;10.60;96.70;;;;;;4984921;28;20109;-88
2020/12/17 02:50:44;;;;;;;19.90;17.42;;;10.60;96.70;;;;;;4983033;28;20480;-87
2020/12/17 02:53:11;;;;;;;21.67;18.08;;;10.60;96.70;;;;;;4984988;28;20473;-88
2020/12/17 02:55:39;;;;;;;20.77;17.42;;;10.60;96.70;;;;;;4982305;28;20044;-88
2020/12/17 02:58:07;;;;;;;20.15;17.13;;;10.60;96.70;;;;;;4981872;28;20058;-89
2020/12/17 03:00:35;;;;;;;19.60;17.50;;;10.60;96.70;;;;;;4983211;28;20038;-88
2020/12/17 03:03:02;;;;;;;18.92;16.70;;;10.60;96.70;;;;;;4965106;28;20049;-88
2020/12/17 03:05:30;;;;;;;19.90;17.50;;;10.60;96.70;;;;;;4981555;28;20506;-88
2020/12/17 03:08:14;;;;;;;18.33;16.13;;;10.60;96.70;;;;;;4985617;28;20049;-87
2020/12/17 03:10:41;;;;;;;19.73;16.98;;;10.50;96.70;;;;;;4981535;28;20527;-87
2020/12/17 03:13:09;;;;;;;20.90;17.15;;;10.60;96.70;;;;;;4983646;28;20085;-87
2020/12/17 03:15:37;;;;;;;18.60;16.58;;;10.60;96.70;;;;;;4982656;28;20425;-88
2020/12/17 03:18:04;;;;;;;18.45;16.00;;;10.60;96.70;;;;;;4988237;28;20088;-88
2020/12/17 03:20:31;;;;;;;19.67;17.13;;;10.60;96.70;;;;;;4983340;28;20069;-88
2020/12/17 03:22:59;;;;;;;19.50;16.92;;;10.60;96.70;;;;;;4982703;28;20045;-88
2020/12/17 03:25:26;;;;;;;18.27;16.38;;;10.60;96.70;;;;;;4978202;28;20146;-88
2020/12/17 03:27:53;;;;;;;18.52;16.13;;;10.60;96.70;;;;;;4984271;28;20049;-87
2020/12/17 03:30:21;;;;;;;18.15;15.77;;;10.60;96.70;;;;;;4966917;28;20054;-88
2020/12/17 03:32:49;;;;;;;20.23;17.17;;;10.60;96.70;;;;;;4996088;28;20859;-87
2020/12/17 03:35:16;;;;;;;19.92;15.98;;;10.60;96.70;;;;;;4985263;28;20069;-88
2020/12/17 03:37:43;;;;;;;18.70;16.27;;;10.60;96.70;;;;;;4982172;28;20366;-89
2020/12/17 03:40:10;;;;;;;20.30;16.35;;;10.50;96.70;;;;;;4981445;28;20121;-88
2020/12/17 03:42:39;;;;;;;20.00;15.85;;;10.50;96.70;;;;;;4965968;28;20712;-89
2020/12/17 03:45:07;;;;;;;17.65;15.80;;;10.50;96.70;;;;;;4968437;28;20591;-88
2020/12/17 03:47:34;;;;;;;18.98;15.80;;;10.50;96.70;;;;;;4982858;28;20481;-88
2020/12/17 03:50:02;;;;;;;17.60;15.02;;;10.50;96.70;;;;;;4982224;28;20133;-89
2020/12/17 03:52:29;;;;;;;20.10;15.90;;;10.50;96.70;;;;;;4961724;28;20520;-87
2020/12/17 03:54:56;;;;;;;17.17;14.57;;;10.60;96.70;;;;;;4966244;28;20031;-86
2020/12/17 03:57:24;;;;;;;17.23;14.95;;;10.60;96.70;;;;;;4965884;28;20137;-87
2020/12/17 03:59:51;;;;;;;16.42;14.13;;;10.60;96.70;;;;;;4982764;28;20117;-87
2020/12/17 04:02:18;;;;;;;16.77;14.82;;;10.60;96.70;;;;;;4967349;28;20050;-88
2020/12/17 04:04:46;;;;;;;16.23;13.50;;;10.70;96.70;;;;;;4982038;28;20041;-88
2020/12/17 04:07:15;;;;;;;15.77;13.63;;;10.70;96.70;;;;;;4978620;28;20050;-89
2020/12/17 04:09:43;;;;;;;15.02;13.05;;;10.70;96.70;;;;;;4978171;28;20501;-86
2020/12/17 04:12:10;;;;;;;15.13;12.57;;;10.70;96.70;;;;;;4968222;28;20043;-88
2020/12/17 04:14:40;;;;;;;15.80;13.27;;;10.70;96.70;;;;;;4981510;28;20049;-87
2020/12/17 04:17:07;;;;;;;14.70;12.82;;;10.70;96.70;;;;;;4978183;28;20141;-88
2020/12/17 04:19:34;;;;;;;14.93;11.88;;;10.70;96.70;;;;;;4982287;28;20042;-88
2020/12/17 04:22:01;;;;;;;13.63;11.90;;;10.70;96.70;;;;;;4983808;28;20062;-88
2020/12/17 04:24:30;;;;;;;12.40;11.10;;;10.70;96.70;;;;;;4984185;28;20046;-89
2020/12/17 04:26:57;;;;;;;12.43;11.13;;;10.80;96.70;;;;;;4979423;28;20525;-88
2020/12/17 04:29:25;;;;;;;13.57;11.60;;;10.80;96.70;;;;;;4981825;28;20047;-87
2020/12/17 04:31:52;;;;;;;12.70;11.10;;;10.80;96.70;;;;;;4966093;28;20137;-88
2020/12/17 04:34:20;;;;;;;13.55;11.35;;;10.80;96.70;;;;;;4966455;28;20401;-84
2020/12/17 04:36:47;;;;;;;13.82;11.63;;;10.80;96.70;;;;;;4963063;28;20051;-87
2020/12/17 04:39:18;;;;;;;14.95;11.90;;;10.80;96.70;;;;;;4982329;28;20097;-89
2020/12/17 04:41:46;;;;;;;15.05;13.45;;;10.80;96.70;;;;;;4969164;28;20038;-88
2020/12/17 04:44:15;;;;;;;14.25;12.48;;;10.80;96.70;;;;;;4981414;28;20049;-89
2020/12/17 04:46:48;;;;;;;14.90;12.68;;;10.80;96.70;;;;;;4964490;28;20038;-88
2020/12/17 04:49:19;;;;;;;13.93;12.40;;;10.80;96.70;;;;;;4984613;28;20054;-89
2020/12/17 04:51:47;;;;;;;15.55;13.52;;;10.80;96.70;;;;;;4983010;28;20504;-87
2020/12/17 04:54:15;;;;;;;13.93;11.98;;;10.80;96.70;;;;;;4981615;28;20034;-88
2020/12/17 04:56:45;;;;;;;14.63;12.02;;;10.80;96.70;;;;;;4995060;28;20507;-88
2020/12/17 04:59:14;;;;;;;12.85;11.52;;;10.80;96.70;;;;;;4974644;28;20047;-88
2020/12/17 05:01:48;;;;;;;12.60;11.32;;;10.80;96.70;;;;;;4965276;28;20508;-87
2020/12/17 05:04:16;;;;;;;12.82;11.32;;;10.80;96.70;;;;;;4979939;28;20042;-87
2020/12/17 05:06:49;;;;;;;15.55;11.85;;;10.80;96.70;;;;;;4967158;28;20046;-87
2020/12/17 05:09:36;;;;;;;13.20;11.20;;;10.80;96.70;;;;;;4981925;28;20077;-87
2020/12/17 05:12:05;;;;;;;13.38;11.98;;;10.80;96.70;;;;;;4981751;28;20172;-89
2020/12/17 05:14:32;;;;;;;12.75;11.32;;;10.80;96.70;;;;;;4978886;28;20058;-89
2020/12/17 05:17:00;;;;;;;14.48;11.80;;;10.80;96.70;;;;;;4960993;28;20511;-88
2020/12/17 05:19:28;;;;;;;14.02;11.75;;;10.80;96.70;;;;;;4984452;28;20471;-89
2020/12/17 05:21:57;;;;;;;14.77;12.18;;;10.70;96.70;;;;;;4980235;28;20047;-89
2020/12/17 05:24:25;;;;;;;13.55;12.15;;;10.70;96.70;;;;;;4981735;28;20050;-87
2020/12/17 05:26:54;;;;;;;13.50;11.70;;;10.70;96.70;;;;;;4967729;28;20404;-89
2020/12/17 05:29:22;;;;;;;13.52;11.43;;;10.70;96.70;;;;;;4965508;28;20114;-89
2020/12/17 05:31:50;;;;;;;13.00;11.65;;;10.80;96.70;;;;;;4963543;28;20548;-87
2020/12/17 05:34:18;;;;;;;12.90;11.55;;;10.80;96.70;;;;;;4974254;28;20049;-89
2020/12/17 05:36:46;;;;;;;13.18;11.43;;;10.80;96.70;;;;;;4965962;28;20042;-87
2020/12/17 05:39:16;;;;;;;14.13;11.77;;;10.80;96.70;;;;;;4997505;28;20129;-88
2020/12/17 05:41:45;;;;;;;13.85;11.25;;;10.80;96.70;;;;;;4993053;28;20050;-88
2020/12/17 05:44:14;;;;;;;12.98;11.10;;;10.80;96.70;;;;;;4981580;28;20593;-87
2020/12/17 05:46:44;;;;;;;13.00;10.88;;;10.80;96.70;;;;;;4981445;28;20034;-89
2020/12/17 05:49:21;;;;;;;14.50;10.93;;;10.80;96.70;;;;;;4980941;28;20054;-89
2020/12/17 05:51:50;;;;;;;12.27;10.98;;;10.80;96.70;;;;;;4979345;28;20047;-88
2020/12/17 05:54:23;;;;;;;12.13;10.23;;;10.80;96.70;;;;;;4997666;28;20412;-88
2020/12/17 05:57:03;;;;;;;11.45;10.13;;;10.80;96.70;;;;;;4966647;28;20050;-88
2020/12/17 05:59:30;;;;;;;10.77;9.68;;;10.80;96.70;;;;;;4966995;28;20042;-84
2020/12/17 06:02:18;;;;;;;11.20;10.07;;;10.80;96.70;;;;;;4978238;28;20385;-84
2020/12/17 06:04:59;;;;;;;10.65;9.55;;;10.80;96.70;;;;;;4978464;28;20400;-85
2020/12/17 06:07:32;;;;;;;11.70;10.32;;;10.80;96.70;;;;;;4979032;28;20042;-85
2020/12/17 06:10:18;;;;;;;11.73;9.90;;;10.90;96.70;;;;;;4963620;28;20051;-85
2020/12/17 06:12:46;;;;;;;13.27;10.18;;;10.80;96.70;;;;;;4980621;28;20501;-84
2020/12/17 06:15:17;;;;;;;10.93;9.73;;;10.80;96.70;;;;;;4980230;28;20038;-84
2020/12/17 06:17:50;;;;;;;11.13;9.60;;;10.80;96.70;;;;;;4986235;28;20046;-84
2020/12/17 06:20:21;;;;;;;11.30;10.05;;;10.80;96.70;;;;;;4980201;28;20038;-84
2020/12/17 06:22:51;;;;;;;15.65;10.82;;;10.80;96.70;;;;;;4999934;28;20054;-84
2020/12/17 06:25:19;;;;;;;13.07;11.00;;;10.80;96.70;;;;;;4983441;28;20124;-84
2020/12/17 06:27:48;;;;;;;11.85;9.90;;;10.80;96.70;;;;;;4984514;28;20121;-84
2020/12/17 06:30:18;;;;;;;14.65;10.65;;;10.80;96.70;;;;;;4998056;28;20054;-84
2020/12/17 06:32:47;;;;;;;12.07;10.52;;;10.80;96.70;;;;;;4984575;28;20038;-85
2020/12/17 06:35:26;;;;;;;11.18;9.32;;;10.80;96.70;;;;;;4969522;28;20047;-85
2020/12/17 06:37:55;;;;;;;12.20;10.27;;;10.80;96.70;;;;;;4985025;28;20744;-86
2020/12/17 06:40:37;;;;;;;10.70;9.57;;;10.80;96.70;;;;;;4988074;28;20037;-85
2020/12/17 06:43:11;;;;;;;11.52;9.85;;;10.80;96.70;;;;;;4981700;28;20057;-85
2020/12/17 06:45:39;;;;;;;12.70;10.90;;;10.90;96.70;;;;;;4982129;28;20065;-85
2020/12/17 06:48:31;;;;;;;12.68;9.77;;;10.90;96.70;;;;;;4987186;28;20049;-85
2020/12/17 06:51:00;;;;;;;12.85;10.32;;;10.90;96.70;;;;;;4982391;28;20042;-85
2020/12/17 06:53:42;;;;;;;12.10;10.38;;;10.90;96.70;;;;;;4984683;28;20046;-86
2020/12/17 06:56:15;;;;;;;10.38;9.27;;;10.90;96.70;;;;;;4966626;28;20042;-87
2020/12/17 06:58:43;;;;;;;14.63;11.50;;;10.90;96.70;;;;;;4996941;28;20527;-86
2020/12/17 07:01:22;;;;;;;13.10;10.40;;;10.90;96.70;;;;;;4967991;28;20038;-90
2020/12/17 07:03:50;;;;;;;13.13;10.52;;;10.90;96.70;;;;;;4973976;28;20725;-90
2020/12/17 07:06:19;;;;;;;14.68;10.48;;;10.90;96.70;;;;;;4967274;28;20421;-87
2020/12/17 07:08:48;;;;;;;12.73;10.10;;;10.90;96.70;;;;;;4969105;28;20046;-86
2020/12/17 07:11:34;;;;;;;12.32;10.40;;;10.90;96.70;;;;;;4981948;28;20097;-85
2020/12/17 07:14:01;;;;;;;12.88;10.50;;;10.90;96.70;;;;;;4981952;28;20591;-84
2020/12/17 07:16:33;;;;;;;12.05;10.75;;;10.90;96.70;;;;;;4982398;28;20085;-88
2020/12/17 07:19:17;;;;;;;12.68;10.48;;;10.90;96.70;;;;;;5014758;28;20056;-85
2020/12/17 07:21:45;;;;;;;13.48;10.40;;;10.90;96.70;;;;;;4980947;28;20163;-84
2020/12/17 07:24:29;;;;;;;12.48;9.98;;;10.90;96.70;;;;;;4984101;28;20061;-86
2020/12/17 07:27:00;;;;;;;12.90;10.52;;;10.90;96.70;;;;;;4985398;28;20497;-88
2020/12/17 07:29:35;;;;;;;13.50;10.57;;;10.90;96.70;;;;;;4983117;28;20527;-87
2020/12/17 07:32:21;;;;;;;13.77;10.85;;;11.00;96.70;;;;;;4984466;28;20057;-88
2020/12/17 07:34:49;;;;;;;13.35;11.43;;;11.00;96.70;;;;;;4979721;28;20360;-90
2020/12/17 07:37:33;;;;;;;41.63;26.38;;;11.00;96.70;;;;;;4964482;28;20048;-90
2020/12/17 07:40:03;;;;;;;36.85;20.23;;;11.00;96.70;;;;;;4983806;28;20515;-89
2020/12/17 07:42:31;;;;;;;28.00;15.10;;;11.10;96.70;;;;;;4985863;28;20042;-87
2020/12/17 07:44:58;;;;;;;24.40;15.20;;;11.10;96.70;;;;;;4985553;28;20607;-89
2020/12/17 07:47:30;;;;;;;17.70;12.80;;;11.00;96.70;;;;;;4983382;28;20129;-87
2020/12/17 07:49:57;;;;;;;13.73;11.75;;;11.10;96.70;;;;;;5014434;28;20050;-88
2020/12/17 07:52:29;;;;;;;13.52;11.60;;;11.10;96.70;;;;;;4981814;28;20575;-85
2020/12/17 07:54:58;;;;;;;40.97;13.80;;;11.10;96.70;;;;;;4977941;28;20053;-94
2020/12/17 07:57:26;;;;;;;20.42;12.32;;;11.10;96.70;;;;;;4985501;28;20060;-91
2020/12/17 07:59:54;;;;;;;17.15;10.82;;;11.10;96.70;;;;;;4969733;28;20038;-94
2020/12/17 08:02:22;;;;;;;12.75;10.40;;;11.10;96.70;;;;;;4983235;28;20034;-92
2020/12/17 08:04:53;;;;;;;11.82;10.40;;;11.10;96.70;;;;;;4987186;28;21049;-91
2020/12/17 08:07:21;;;;;;;11.57;10.13;;;11.10;96.70;;;;;;4984559;28;20405;-91
2020/12/17 08:09:58;;;;;;;12.93;11.55;;;11.10;96.70;;;;;;4963409;28;20097;-92
2020/12/17 08:12:27;;;;;;;14.85;12.52;;;11.10;96.70;;;;;;4981327;28;20038;-91
2020/12/17 08:15:07;;;;;;;12.52;11.20;;;11.20;96.70;;;;;;4984460;28;20085;-93
2020/12/17 08:17:34;;;;;;;12.90;10.85;;;11.20;96.70;;;;;;4984920;28;20046;-94
2020/12/17 08:20:01;;;;;;;13.98;11.10;;;11.20;96.70;;;;;;4970638;28;20477;-94
2020/12/17 08:22:29;;;;;;;12.27;10.35;;;11.20;96.70;;;;;;4983633;28;20567;-94
2020/12/17 08:25:05;;;;;;;12.63;9.93;;;11.20;96.70;;;;;;5012184;28;20797;-93
2020/12/17 08:27:33;;;;;;;10.82;9.73;;;11.20;96.70;;;;;;5014749;28;20051;-92
2020/12/17 08:30:00;;;;;;;11.90;10.20;;;11.30;96.70;;;;;;4984143;28;20318;-91
2020/12/17 08:32:30;;;;;;;17.33;12.43;;;11.30;96.70;;;;;;4983297;28;20501;-90
2020/12/17 08:34:58;;;;;;;18.92;14.05;;;11.30;96.70;;;;;;4983872;28;20141;-90
2020/12/17 08:37:25;;;;;;;14.88;12.90;;;11.30;96.70;;;;;;4967343;28;20042;-90
2020/12/17 08:39:58;;;;;;;13.88;11.73;;;11.30;96.70;;;;;;4966521;28;20054;-91
2020/12/17 08:42:33;;;;;;;12.05;10.68;;;11.30;96.70;;;;;;4983744;28;20109;-91
2020/12/17 08:45:03;;;;;;;12.25;10.20;;;11.40;96.70;;;;;;4984334;28;20049;-93
2020/12/17 08:47:32;;;;;;;12.30;9.93;;;11.40;96.70;;;;;;4967255;28;20049;-93
2020/12/17 08:50:03;;;;;;;12.02;10.30;;;11.40;96.70;;;;;;4983437;28;20142;-92
2020/12/17 08:52:32;;;;;;;13.23;9.52;;;11.40;96.70;;;;;;4979646;28;20049;-91
2020/12/17 08:55:02;;;;;;;10.82;8.68;;;11.50;96.70;;;;;;4981416;28;20121;-91
2020/12/17 08:57:30;;;;;;;11.82;9.07;;;11.50;96.70;;;;;;5001032;28;20035;-91
2020/12/17 08:59:58;;;;;;;11.25;8.88;;;11.50;96.70;;;;;;4996764;28;20129;-90
2020/12/17 09:02:26;;;;;;;10.70;9.20;;;11.50;96.70;;;;;;4967430;28;20047;-90
2020/12/17 09:04:55;;;;;;;10.13;8.82;;;11.50;96.70;;;;;;4979703;28;20412;-92
2020/12/17 09:07:24;;;;;;;29.98;23.13;;;11.60;96.70;;;;;;4964255;28;20056;-92
2020/12/17 09:09:52;;;;;;;50.75;37.20;;;11.60;96.70;;;;;;4982941;28;20042;-95
2020/12/17 09:12:28;;;;;;;17.88;12.90;;;11.60;96.70;;;;;;4984828;28;20042;-93
2020/12/17 09:15:04;;;;;;;18.73;13.95;;;11.70;96.70;;;;;;5000134;28;20556;-93
2020/12/17 09:17:31;;;;;;;15.70;13.25;;;11.70;96.70;;;;;;4982188;28;20308;-95
2020/12/17 09:20:13;;;;;;;14.60;10.63;;;11.70;96.70;;;;;;4978578;28;20042;-93
2020/12/17 09:22:40;;;;;;;12.23;9.88;;;11.70;96.70;;;;;;4967965;28;20073;-94
2020/12/17 09:25:08;;;;;;;12.13;10.43;;;11.80;96.70;;;;;;4984803;28;20097;-95
2020/12/17 09:27:37;;;;;;;14.15;10.13;;;11.80;96.70;;;;;;4984824;28;20042;-93
2020/12/17 09:30:12;;;;;;;10.77;9.35;;;11.80;96.70;;;;;;4983448;28;20043;-94
2020/12/17 09:32:41;;;;;;;14.00;10.13;;;11.80;96.70;;;;;;4984535;28;20042;-94
2020/12/17 09:35:11;;;;;;;13.75;11.18;;;11.90;96.70;;;;;;4967595;28;20042;-93
2020/12/17 09:37:41;;;;;;;12.30;10.07;;;11.90;96.70;;;;;;4979300;28;20050;-90
2020/12/17 09:40:09;;;;;;;14.07;10.48;;;11.90;96.70;;;;;;4966596;28;20175;-94
2020/12/17 09:42:37;;;;;;;12.48;10.32;;;11.90;96.70;;;;;;4967068;28;20110;-91
2020/12/17 09:45:20;;;;;;;12.57;10.23;;;12.00;96.70;;;;;;4985402;28;20641;-90
2020/12/17 09:47:48;;;;;;;11.57;10.23;;;12.00;96.70;;;;;;4982772;28;20046;-91
2020/12/17 09:50:17;;;;;;;13.68;11.23;;;12.00;96.70;;;;;;4980724;28;20050;-89
2020/12/17 09:52:45;;;;;;;12.80;9.60;;;11.90;96.70;;;;;;4981914;28;20051;-87
2020/12/17 09:55:12;;;;;;;14.18;11.52;;;11.90;96.70;;;;;;4967714;28;20405;-87
2020/12/17 09:57:41;;;;;;;13.93;10.40;;;11.90;96.70;;;;;;4978470;28;20045;-85
2020/12/17 10:00:11;;;;;;;12.68;10.52;;;11.90;96.70;;;;;;4985477;28;20043;-88
2020/12/17 10:02:40;;;;;;;13.40;10.57;;;12.00;96.70;;;;;;4984295;28;20030;-83
2020/12/17 10:05:08;;;;;;;14.57;11.00;;;12.00;96.70;;;;;;4982944;28;20046;-87
2020/12/17 10:07:36;;;;;;;13.13;10.43;;;12.00;96.70;;;;;;4983443;28;20042;-94
2020/12/17 10:10:04;;;;;;;13.75;10.27;;;12.00;96.70;;;;;;4984878;28;20062;-88
2020/12/17 10:12:41;;;;;;;13.82;10.27;;;12.00;96.70;;;;;;4982461;28;20132;-84
2020/12/17 10:15:09;;;;;;;12.40;10.13;;;12.00;96.70;;;;;;4983147;28;20062;-82
2020/12/17 10:17:36;;;;;;;15.10;10.32;;;12.00;96.70;;;;;;4981060;28;20046;-81
2020/12/17 10:20:06;;;;;;;13.43;9.85;;;12.00;96.70;;;;;;4981270;28;20065;-80
2020/12/17 10:22:44;;;;;;;13.60;10.73;;;12.00;96.70;;;;;;4982404;28;20620;-81
2020/12/17 10:25:12;;;;;;;11.38;9.85;;;12.10;96.70;;;;;;4982900;28;20066;-88
2020/12/17 10:27:39;;;;;;;99.80;72.43;;;12.10;96.70;;;;;;4964221;28;20042;-83
2020/12/17 10:30:07;;;;;;;25.63;19.80;;;12.10;96.70;;;;;;4983654;28;20045;-89
2020/12/17 10:32:35;;;;;;;15.65;12.50;;;12.20;96.70;;;;;;4996168;28;20046;-84
2020/12/17 10:35:02;;;;;;;18.08;11.88;;;12.20;96.70;;;;;;4982429;28;20129;-83
2020/12/17 10:37:31;;;;;;;16.50;12.32;;;12.20;96.70;;;;;;4982279;28;20102;-87
2020/12/17 10:39:58;;;;;;;17.88;12.95;;;12.20;96.70;;;;;;4968672;28;20165;-87
2020/12/17 10:42:25;;;;;;;18.15;13.77;;;12.30;96.70;;;;;;4967935;28;20677;-86
2020/12/17 10:44:53;;;;;;;14.57;11.73;;;12.30;96.70;;;;;;4979615;28;20583;-86
2020/12/17 10:47:20;;;;;;;15.57;11.75;;;12.30;96.70;;;;;;4983094;28;20516;-85
2020/12/17 10:49:48;;;;;;;13.00;11.10;;;12.40;96.70;;;;;;4983002;28;20993;-86
2020/12/17 10:52:16;;;;;;;13.38;10.93;;;12.40;96.70;;;;;;4982283;28;20030;-87
2020/12/17 10:54:44;;;;;;;12.65;10.55;;;12.40;96.70;;;;;;4981472;28;20061;-85
2020/12/17 10:57:18;;;;;;;12.27;10.25;;;12.40;96.70;;;;;;4977499;28;20040;-86
2020/12/17 10:59:46;;;;;;;14.07;10.55;;;12.40;96.70;;;;;;4981033;28;20148;-86
2020/12/17 11:02:14;;;;;;;13.88;11.48;;;12.40;96.70;;;;;;5014555;28;20076;-86
2020/12/17 11:04:42;;;;;;;15.93;11.40;;;12.40;96.70;;;;;;4965345;28;20133;-91
2020/12/17 11:07:10;;;;;;;14.93;10.77;;;12.50;96.70;;;;;;4983449;28;20492;-87
2020/12/17 11:09:37;;;;;;;18.40;12.55;;;12.40;96.70;;;;;;4966471;28;20052;-85
2020/12/17 11:12:06;;;;;;;15.20;12.32;;;12.50;96.70;;;;;;4981109;28;20121;-85
2020/12/17 11:14:33;;;;;;;14.02;12.18;;;12.50;96.70;;;;;;4981371;28;20035;-84
2020/12/17 11:17:03;;;;;;;12.65;11.18;;;12.50;96.70;;;;;;4964677;28;20052;-85
2020/12/17 11:19:31;;;;;;;14.32;11.00;;;12.50;96.70;;;;;;4966412;28;20056;-85
2020/12/17 11:21:59;;;;;;;12.98;11.30;;;12.50;96.70;;;;;;4966154;28;20054;-88
2020/12/17 11:24:27;;;;;;;14.70;12.73;;;12.50;96.70;;;;;;4964846;28;20073;-86
2020/12/17 11:26:54;;;;;;;18.98;14.68;;;12.50;96.70;;;;;;4985244;28;20086;-86
2020/12/17 11:29:23;;;;;;;18.00;13.48;;;12.50;96.70;;;;;;4979344;28;20382;-86
2020/12/17 11:31:51;;;;;;;20.10;14.27;;;12.50;96.70;;;;;;4983719;28;20541;-89
2020/12/17 11:34:18;;;;;;;14.70;12.70;;;12.50;96.70;;;;;;4981000;28;20492;-88
2020/12/17 11:36:46;;;;;;;19.48;13.57;;;12.50;96.70;;;;;;4980016;28;20049;-87
2020/12/17 11:39:14;;;;;;;15.60;13.57;;;12.50;96.70;;;;;;4982387;28;20200;-89
2020/12/17 11:41:46;;;;;;;16.90;13.60;;;12.60;96.70;;;;;;4983859;28;20050;-92
2020/12/17 11:44:14;;;;;;;16.48;13.23;;;12.60;96.70;;;;;;4981918;28;20042;-90
2020/12/17 11:46:42;;;;;;;16.85;13.30;;;12.70;96.70;;;;;;4985695;28;20039;-88
2020/12/17 11:49:10;;;;;;;20.35;13.45;;;12.70;96.70;;;;;;4982174;28;20540;-87
2020/12/17 11:51:37;;;;;;;20.92;13.13;;;12.70;96.70;;;;;;4966751;28;20397;-87
2020/12/17 11:54:05;;;;;;;17.52;13.45;;;12.80;96.70;;;;;;4967243;28;20064;-88
2020/12/17 11:56:32;;;;;;;15.82;14.15;;;12.70;96.70;;;;;;4967177;28;20070;-91
2020/12/17 11:58:59;;;;;;;18.42;15.93;;;12.70;96.70;;;;;;4983533;28;20065;-86
2020/12/17 12:01:29;;;;;;;15.13;13.10;;;12.70;96.70;;;;;;4967809;28;20092;-87
2020/12/17 12:03:58;;;;;;;14.05;12.25;;;12.80;96.70;;;;;;4982242;28;20138;-91
2020/12/17 12:06:25;;;;;;;16.13;13.27;;;12.80;96.70;;;;;;4983589;28;20061;-90
2020/12/17 12:08:52;;;;;;;15.52;12.63;;;12.80;96.70;;;;;;4963572;28;20042;-90
2020/12/17 12:11:20;;;;;;;17.15;13.20;;;12.80;96.70;;;;;;4978123;28;20508;-90
2020/12/17 12:13:52;;;;;;;15.02;12.93;;;12.80;96.70;;;;;;4981160;28;20042;-89
2020/12/17 12:16:20;;;;;;;13.73;12.25;;;12.90;96.70;;;;;;4969988;28;20085;-89
2020/12/17 12:18:48;;;;;;;14.98;11.85;;;12.90;96.70;;;;;;4965709;28;20046;-87
2020/12/17 12:21:18;;;;;;;15.15;12.05;;;12.90;96.70;;;;;;4978298;28;20986;-88
2020/12/17 12:23:46;;;;;;;14.07;12.38;;;12.80;96.70;;;;;;4980699;28;20045;-90
2020/12/17 12:26:43;;;;;;;14.48;12.18;;;12.80;96.70;;;;;;4990380;28;20047;-87
2020/12/17 12:29:25;;;;;;;18.27;16.20;;;12.80;96.70;;;;;;4829450;29;20069;-92
2020/12/17 12:31:53;;;;;;;28.42;22.15;;;12.90;96.70;;;;;;4973752;28;20082;-91
2020/12/17 12:34:22;;;;;;;22.45;16.02;;;12.90;96.70;;;;;;4967763;28;20144;-90
2020/12/17 12:36:51;;;;;;;16.55;14.35;;;12.90;96.70;;;;;;4976712;28;20100;-86
2020/12/17 12:39:18;;;;;;;14.73;13.05;;;12.90;96.70;;;;;;4965958;28;20634;-85